createdAt,value
2019-01-04T00:01:52.805Z,2.90
2019-01-04T00:04:21.235Z,3.10
2019-01-04T00:06:49.706Z,3.40
2019-01-04T00:09:18.138Z,3.30
2019-01-04T00:11:46.624Z,3.60
2019-01-04T00:14:15.131Z,3.53
2019-01-04T00:16:43.567Z,3.17
2019-01-04T00:19:12.022Z,3.37
2019-01-04T00:21:40.471Z,3.10
2019-01-04T00:24:08.924Z,3.10
2019-01-04T00:26:37.347Z,3.03
2019-01-04T00:29:05.812Z,3.23
2019-01-04T00:31:34.281Z,3.00
2019-01-04T00:34:02.747Z,3.03
2019-01-04T00:36:31.266Z,3.27
2019-01-04T00:38:59.719Z,3.10
2019-01-04T00:41:28.161Z,2.60
2019-01-04T00:43:56.614Z,3.00
2019-01-04T00:46:25.062Z,3.20
2019-01-04T00:48:53.674Z,2.87
2019-01-04T00:51:22.114Z,3.10
2019-01-04T00:53:50.562Z,3.27
2019-01-04T00:56:27.977Z,3.07
2019-01-04T00:59:32.183Z,3.40
2019-01-04T01:02:19.842Z,3.00
2019-01-04T01:05:02.498Z,3.27
2019-01-04T01:07:39.724Z,3.13
2019-01-04T01:10:20.010Z,3.07
2019-01-04T01:13:11.581Z,3.40
2019-01-04T01:16:05.507Z,3.07
2019-01-04T01:18:37.030Z,3.20
2019-01-04T01:21:39.824Z,3.37
2019-01-04T01:24:44.228Z,3.33
2019-01-04T01:27:21.594Z,3.37
2019-01-04T01:29:58.819Z,3.07
2019-01-04T01:32:45.178Z,3.20
2019-01-04T01:35:39.170Z,2.80
2019-01-04T01:38:31.350Z,3.83
2019-01-04T01:41:19.127Z,3.33
2019-01-04T01:43:59.186Z,2.90
2019-01-04T01:46:33.363Z,2.77
2019-01-04T01:49:04.892Z,2.50
2019-01-04T01:51:38.922Z,2.80
2019-01-04T01:54:07.383Z,2.83
2019-01-04T01:56:35.821Z,2.90
2019-01-04T01:59:04.460Z,3.33
2019-01-04T02:01:32.901Z,3.87
2019-01-04T02:04:01.332Z,4.40
2019-01-04T02:06:29.785Z,4.20
2019-01-04T02:08:58.210Z,3.93
2019-01-04T02:11:26.669Z,4.70
2019-01-04T02:13:55.108Z,4.80
2019-01-04T02:16:23.554Z,5.37
2019-01-04T02:18:51.982Z,5.00
2019-01-04T02:21:20.433Z,4.90
2019-01-04T02:23:48.874Z,4.93
2019-01-04T02:26:17.334Z,5.87
2019-01-04T02:28:45.761Z,5.73
2019-01-04T02:31:14.219Z,5.40
2019-01-04T02:33:42.652Z,4.77
2019-01-04T02:36:11.130Z,5.17
2019-01-04T02:38:39.566Z,5.63
2019-01-04T02:41:08.023Z,6.00
2019-01-04T02:43:36.454Z,6.10
2019-01-04T02:46:04.908Z,6.10
2019-01-04T02:48:33.351Z,6.67
2019-01-04T02:51:01.806Z,6.43
2019-01-04T02:53:30.263Z,6.27
2019-01-04T02:55:58.779Z,6.80
2019-01-04T02:58:27.231Z,6.50
2019-01-04T03:00:55.729Z,6.90
2019-01-04T03:03:24.170Z,6.00
2019-01-04T03:05:52.648Z,6.30
2019-01-04T03:08:21.089Z,6.67
2019-01-04T03:10:49.557Z,6.67
2019-01-04T03:13:17.989Z,6.80
2019-01-04T03:15:46.426Z,7.03
2019-01-04T03:18:14.968Z,6.87
2019-01-04T03:20:43.407Z,7.80
2019-01-04T03:23:11.864Z,7.77
2019-01-04T03:25:40.303Z,8.33
2019-01-04T03:28:08.767Z,7.77
2019-01-04T03:30:37.208Z,7.07
2019-01-04T03:33:05.672Z,7.93
2019-01-04T03:35:34.129Z,7.80
2019-01-04T03:38:02.585Z,7.73
2019-01-04T03:40:31.082Z,7.87
2019-01-04T03:42:59.542Z,8.23
2019-01-04T03:45:27.987Z,8.53
2019-01-04T03:47:56.441Z,8.70
2019-01-04T03:50:24.875Z,9.07
2019-01-04T03:52:53.345Z,9.00
2019-01-04T03:55:21.782Z,9.07
2019-01-04T03:57:50.237Z,9.27
2019-01-04T04:00:18.679Z,9.03
2019-01-04T04:02:47.149Z,9.17
2019-01-04T04:05:15.580Z,8.20
2019-01-04T04:07:44.037Z,8.20
2019-01-04T04:10:12.471Z,8.90
2019-01-04T04:12:40.929Z,7.77
2019-01-04T04:15:09.444Z,8.23
2019-01-04T04:17:37.901Z,8.50
2019-01-04T04:20:07.398Z,8.13
2019-01-04T04:22:35.849Z,8.17
2019-01-04T04:25:05.830Z,8.77
2019-01-04T04:27:34.258Z,9.33
2019-01-04T04:30:02.710Z,9.33
2019-01-04T04:32:31.212Z,11.07
2019-01-04T04:34:59.742Z,11.63
2019-01-04T04:37:28.179Z,11.30
2019-01-04T04:39:56.632Z,11.70
2019-01-04T04:42:25.074Z,12.30
2019-01-04T04:44:53.537Z,13.50
2019-01-04T04:47:21.985Z,14.20
2019-01-04T04:49:50.460Z,13.17
2019-01-04T04:52:18.898Z,14.67
2019-01-04T04:54:47.347Z,14.57
2019-01-04T04:57:15.790Z,14.43
2019-01-04T04:59:44.246Z,13.87
2019-01-04T05:02:12.691Z,14.17
2019-01-04T05:04:41.151Z,14.53
2019-01-04T05:07:09.592Z,15.10
2019-01-04T05:09:38.055Z,14.63
2019-01-04T05:12:06.500Z,14.93
2019-01-04T05:14:34.950Z,14.80
2019-01-04T05:17:03.405Z,14.20
2019-01-04T05:19:31.920Z,14.50
2019-01-04T05:22:00.435Z,14.23
2019-01-04T05:24:28.897Z,14.63
2019-01-04T05:26:57.355Z,14.60
2019-01-04T05:29:25.803Z,14.03
2019-01-04T05:31:54.266Z,13.90
2019-01-04T05:34:22.726Z,13.80
2019-01-04T05:36:51.214Z,13.63
2019-01-04T05:39:19.663Z,12.53
2019-01-04T05:41:48.118Z,13.10
2019-01-04T05:44:16.563Z,12.47
2019-01-04T05:46:45.018Z,12.93
2019-01-04T05:49:13.476Z,12.23
2019-01-04T05:51:41.948Z,12.33
2019-01-04T05:54:10.377Z,13.50
2019-01-04T05:56:38.841Z,12.70
2019-01-04T05:59:07.295Z,12.47
2019-01-04T06:01:35.814Z,12.73
2019-01-04T06:04:04.249Z,12.70
2019-01-04T06:06:32.714Z,13.43
2019-01-04T06:09:01.154Z,13.33
2019-01-04T06:11:29.615Z,13.53
2019-01-04T06:13:58.066Z,12.70
2019-01-04T06:16:26.515Z,13.40
2019-01-04T06:18:54.977Z,13.43
2019-01-04T06:21:23.413Z,13.40
2019-01-04T06:23:51.870Z,13.33
2019-01-04T06:26:20.310Z,12.87
2019-01-04T06:28:48.768Z,13.73
2019-01-04T06:31:17.217Z,12.83
2019-01-04T06:33:45.678Z,13.63
2019-01-04T06:36:14.121Z,13.03
2019-01-04T06:38:42.589Z,14.63
2019-01-04T06:41:11.026Z,14.13
2019-01-04T06:43:39.494Z,13.93
2019-01-04T06:46:07.932Z,15.47
2019-01-04T06:48:36.379Z,15.23
2019-01-04T06:51:04.820Z,15.80
2019-01-04T06:53:33.270Z,15.10
2019-01-04T06:56:01.719Z,14.93
2019-01-04T06:58:30.179Z,15.23
2019-01-04T07:00:58.615Z,15.63
2019-01-04T07:03:27.076Z,16.07
2019-01-04T07:05:55.521Z,15.73
2019-01-04T07:08:23.973Z,16.53
2019-01-04T07:10:52.416Z,17.60
2019-01-04T07:13:20.874Z,17.57
2019-01-04T07:15:49.313Z,18.07
2019-01-04T07:18:17.805Z,17.97
2019-01-04T07:20:46.277Z,19.57
2019-01-04T07:23:14.789Z,17.53
2019-01-04T07:25:43.237Z,19.53
2019-01-04T07:28:11.682Z,20.03
2019-01-04T07:30:40.205Z,19.60
2019-01-04T07:33:08.685Z,19.33
2019-01-04T07:35:37.151Z,20.43
2019-01-04T07:38:05.609Z,20.03
2019-01-04T07:40:34.083Z,19.03
2019-01-04T07:43:02.536Z,18.10
2019-01-04T07:45:31.034Z,19.53
2019-01-04T07:47:59.452Z,18.30
2019-01-04T07:50:27.934Z,18.37
2019-01-04T07:52:56.388Z,19.73
2019-01-04T07:55:24.922Z,19.53
2019-01-04T07:57:53.487Z,19.03
2019-01-04T08:00:21.970Z,19.43
2019-01-04T08:02:50.411Z,18.87
2019-01-04T08:05:19.443Z,19.13
2019-01-04T08:07:47.885Z,18.33
2019-01-04T08:10:16.344Z,19.13
2019-01-04T08:12:47.598Z,18.23
2019-01-04T08:15:16.052Z,18.60
2019-01-04T08:17:44.500Z,19.83
2019-01-04T08:20:13.013Z,19.57
2019-01-04T08:22:41.456Z,18.63
2019-01-04T08:25:09.901Z,19.90
2019-01-04T08:27:38.348Z,19.27
2019-01-04T08:30:09.630Z,17.80
2019-01-04T08:32:38.088Z,18.33
2019-01-04T08:35:06.593Z,17.27
2019-01-04T08:37:35.078Z,18.27
2019-01-04T08:40:03.795Z,18.50
2019-01-04T08:42:32.258Z,16.80
2019-01-04T08:45:00.698Z,16.00
2019-01-04T08:47:29.176Z,15.77
2019-01-04T08:49:57.616Z,16.33
2019-01-04T08:52:26.099Z,15.40
2019-01-04T08:54:54.530Z,16.70
2019-01-04T08:57:22.993Z,17.30
2019-01-04T08:59:51.438Z,15.33
2019-01-04T09:02:19.886Z,15.40
2019-01-04T09:04:48.322Z,14.63
2019-01-04T09:07:16.781Z,14.60
2019-01-04T09:09:45.205Z,15.17
2019-01-04T09:12:13.680Z,14.60
2019-01-04T09:14:42.182Z,14.20
2019-01-04T09:17:10.735Z,14.90
2019-01-04T09:19:39.248Z,15.30
2019-01-04T09:22:07.715Z,15.83
2019-01-04T09:24:36.220Z,15.53
2019-01-04T09:27:04.756Z,15.30
2019-01-04T09:29:33.206Z,16.07
2019-01-04T09:32:01.713Z,16.10
2019-01-04T09:34:30.166Z,14.97
2019-01-04T09:36:58.604Z,15.33
2019-01-04T09:39:27.801Z,15.80
2019-01-04T09:41:56.933Z,15.30
2019-01-04T09:44:25.432Z,14.43
2019-01-04T09:46:53.953Z,15.70
2019-01-04T09:49:22.408Z,15.50
2019-01-04T09:51:50.838Z,15.03
2019-01-04T09:54:19.311Z,16.03
2019-01-04T09:56:47.772Z,13.83
2019-01-04T09:59:16.238Z,12.83
2019-01-04T10:01:44.680Z,14.27
2019-01-04T10:04:13.153Z,13.30
2019-01-04T10:06:41.589Z,15.57
2019-01-04T10:09:10.051Z,13.73
2019-01-04T10:11:38.544Z,14.93
2019-01-04T10:14:07.056Z,14.60
2019-01-04T10:16:35.508Z,14.83
2019-01-04T10:19:04.033Z,14.30
2019-01-04T10:21:32.473Z,14.27
2019-01-04T10:24:00.939Z,14.53
2019-01-04T10:26:29.375Z,13.87
2019-01-04T10:28:57.841Z,14.30
2019-01-04T10:31:26.292Z,13.77
2019-01-04T10:33:54.764Z,14.73
2019-01-04T10:36:23.232Z,14.70
2019-01-04T10:38:51.757Z,13.50
2019-01-04T10:41:20.211Z,14.13
2019-01-04T10:43:48.660Z,13.07
2019-01-04T10:46:17.117Z,14.63
2019-01-04T10:48:45.555Z,14.57
2019-01-04T10:51:14.005Z,13.93
2019-01-04T10:53:42.441Z,12.87
2019-01-04T10:56:10.898Z,13.73
2019-01-04T10:58:39.338Z,13.33
2019-01-04T11:01:07.967Z,12.80
2019-01-04T11:03:36.415Z,12.37
2019-01-04T11:06:04.870Z,11.37
2019-01-04T11:08:33.319Z,11.00
2019-01-04T11:11:01.807Z,11.17
2019-01-04T11:13:30.261Z,11.50
2019-01-04T11:15:58.709Z,11.63
2019-01-04T11:18:27.146Z,11.63
2019-01-04T11:20:56.743Z,11.23
2019-01-04T11:23:53.438Z,10.63
2019-01-04T11:26:25.310Z,9.93
2019-01-04T11:29:08.425Z,10.23
2019-01-04T11:31:48.979Z,10.87
2019-01-04T11:34:38.014Z,11.53
2019-01-04T11:37:18.255Z,11.97
2019-01-04T11:40:09.269Z,10.57
2019-01-04T11:42:43.501Z,11.00
2019-01-04T11:45:23.606Z,10.33
2019-01-04T11:48:06.875Z,11.23
2019-01-04T11:50:50.289Z,11.10
2019-01-04T11:53:18.724Z,11.33
2019-01-04T11:55:47.172Z,10.23
2019-01-04T11:58:15.625Z,10.37
2019-01-04T12:00:44.091Z,10.40
2019-01-04T12:03:12.613Z,9.97
2019-01-04T12:05:41.043Z,9.33
2019-01-04T12:08:09.501Z,10.10
2019-01-04T12:10:37.948Z,9.30
2019-01-04T12:13:06.402Z,9.20
2019-01-04T12:15:34.861Z,9.27
2019-01-04T12:18:03.395Z,8.70
2019-01-04T12:20:31.850Z,8.73
2019-01-04T12:23:00.365Z,9.10
2019-01-04T12:25:28.805Z,8.10
2019-01-04T12:27:57.237Z,8.47
2019-01-04T12:30:25.697Z,7.43
2019-01-04T12:32:54.241Z,7.73
2019-01-04T12:35:22.666Z,7.80
2019-01-04T12:37:51.105Z,8.23
2019-01-04T12:40:19.544Z,8.13
2019-01-04T12:42:48.002Z,8.47
2019-01-04T12:45:16.441Z,8.50
2019-01-04T12:47:44.895Z,8.13
2019-01-04T12:50:13.345Z,7.63
2019-01-04T12:52:41.807Z,8.13
2019-01-04T12:55:10.311Z,7.13
2019-01-04T12:57:38.756Z,7.70
2019-01-04T13:00:10.896Z,7.17
2019-01-04T13:02:39.326Z,6.90
2019-01-04T13:05:07.910Z,7.30
2019-01-04T13:07:36.338Z,7.17
2019-01-04T13:10:05.129Z,7.83
2019-01-04T13:12:33.556Z,7.20
2019-01-04T13:15:02.019Z,7.07
2019-01-04T13:17:30.447Z,7.20
2019-01-04T13:19:58.895Z,7.17
2019-01-04T13:22:27.330Z,6.63
2019-01-04T13:24:55.806Z,7.27
2019-01-04T13:27:24.308Z,7.97
2019-01-04T13:29:52.767Z,8.20
2019-01-04T13:32:21.214Z,6.93
2019-01-04T13:34:49.689Z,7.80
2019-01-04T13:37:18.139Z,8.20
2019-01-04T13:39:46.588Z,7.17
2019-01-04T13:42:15.030Z,8.00
2019-01-04T13:44:43.475Z,6.63
2019-01-04T13:47:11.917Z,8.10
2019-01-04T13:49:40.367Z,6.97
2019-01-04T13:52:08.798Z,7.23
2019-01-04T13:54:37.227Z,7.03
2019-01-04T13:57:05.736Z,7.13
2019-01-04T13:59:34.169Z,6.00
2019-01-04T14:02:02.623Z,6.23
2019-01-04T14:04:31.059Z,6.20
2019-01-04T14:07:00.356Z,6.57
2019-01-04T14:09:28.807Z,6.43
2019-01-04T14:11:57.330Z,6.50
2019-01-04T14:14:25.786Z,7.27
2019-01-04T14:16:54.298Z,5.60
2019-01-04T14:19:22.752Z,5.77
2019-01-04T14:21:51.193Z,6.00
2019-01-04T14:24:19.643Z,6.27
2019-01-04T14:26:48.095Z,6.00
2019-01-04T14:29:16.529Z,6.37
2019-01-04T14:31:44.981Z,6.63
2019-01-04T14:34:13.408Z,7.13
2019-01-04T14:36:41.862Z,7.17
2019-01-04T14:39:10.314Z,6.87
2019-01-04T14:41:38.761Z,6.63
2019-01-04T14:44:07.194Z,7.40
2019-01-04T14:46:35.706Z,7.67
2019-01-04T14:49:04.144Z,9.30
2019-01-04T14:51:32.586Z,9.60
2019-01-04T14:54:01.043Z,7.33
2019-01-04T14:56:29.476Z,8.27
2019-01-04T14:58:57.924Z,6.97
2019-01-04T15:01:26.359Z,6.53
2019-01-04T15:03:54.826Z,7.00
2019-01-04T15:06:23.327Z,6.33
2019-01-04T15:08:51.782Z,5.83
2019-01-04T15:11:20.234Z,5.50
2019-01-04T15:13:48.685Z,5.50
2019-01-04T15:16:17.125Z,5.20
2019-01-04T15:18:45.574Z,4.90
2019-01-04T15:21:14.011Z,4.87
2019-01-04T15:23:42.456Z,5.00
2019-01-04T15:26:10.923Z,5.50
2019-01-04T15:28:39.393Z,6.07
2019-01-04T15:31:07.831Z,5.97
2019-01-04T15:33:36.290Z,5.70
2019-01-04T15:36:04.782Z,5.70
2019-01-04T15:38:36.324Z,6.47
2019-01-04T15:41:03.443Z,5.30
2019-01-04T15:43:31.916Z,5.77
2019-01-04T15:46:00.351Z,5.63
2019-01-04T15:48:28.810Z,5.53
2019-01-04T15:50:57.279Z,5.87
2019-01-04T15:53:25.748Z,5.73
2019-01-04T15:55:54.172Z,5.80
2019-01-04T15:58:22.696Z,5.67
2019-01-04T16:00:51.140Z,6.20
2019-01-04T16:03:19.593Z,5.93
2019-01-04T16:05:48.029Z,6.03
2019-01-04T16:08:16.478Z,6.43
2019-01-04T16:10:44.920Z,5.77
2019-01-04T16:13:13.397Z,6.47
2019-01-04T16:15:41.842Z,6.17
2019-01-04T16:18:10.264Z,6.30
2019-01-04T16:20:38.728Z,6.07
2019-01-04T16:23:07.166Z,6.27
2019-01-04T16:25:35.626Z,6.63
2019-01-04T16:28:04.067Z,6.53
2019-01-04T16:30:32.536Z,6.80
2019-01-04T16:33:00.981Z,6.27
2019-01-04T16:35:29.540Z,6.60
2019-01-04T16:37:57.994Z,8.07
2019-01-04T16:40:26.596Z,6.67
2019-01-04T16:42:55.088Z,6.67
2019-01-04T16:45:23.573Z,6.90
2019-01-04T16:47:52.043Z,7.10
2019-01-04T16:50:20.622Z,7.13
2019-01-04T16:52:49.099Z,7.03
2019-01-04T16:55:17.547Z,6.53
2019-01-04T16:57:46.286Z,7.23
2019-01-04T17:00:14.803Z,6.80
2019-01-04T17:02:43.277Z,6.60
2019-01-04T17:05:11.817Z,7.20
2019-01-04T17:07:40.344Z,6.40
2019-01-04T17:10:08.832Z,7.57
2019-01-04T17:12:37.266Z,6.23
2019-01-04T17:15:06.527Z,6.40
2019-01-04T17:17:35.058Z,6.97
2019-01-04T17:20:03.740Z,6.20
2019-01-04T17:22:32.254Z,6.33
2019-01-04T17:25:00.721Z,6.00
2019-01-04T17:27:29.200Z,5.90
2019-01-04T17:29:57.648Z,5.37
2019-01-04T17:32:26.099Z,5.57
2019-01-04T17:34:54.538Z,6.03
2019-01-04T17:37:23.002Z,5.67
2019-01-04T17:39:51.425Z,5.47
2019-01-04T17:42:19.896Z,5.37
2019-01-04T17:44:48.347Z,5.00
2019-01-04T17:47:16.798Z,5.30
2019-01-04T17:49:45.236Z,5.37
2019-01-04T17:52:13.716Z,5.03
2019-01-04T17:54:42.145Z,5.27
2019-01-04T17:57:10.595Z,6.30
2019-01-04T17:59:39.033Z,5.53
2019-01-04T18:02:07.482Z,5.70
2019-01-04T18:04:35.927Z,5.50
2019-01-04T18:07:04.389Z,5.40
2019-01-04T18:09:32.815Z,5.30
2019-01-04T18:12:01.274Z,5.37
2019-01-04T18:14:29.733Z,6.03
2019-01-04T18:16:58.173Z,5.50
2019-01-04T18:19:26.621Z,5.27
2019-01-04T18:21:55.064Z,5.20
2019-01-04T18:24:23.514Z,5.23
2019-01-04T18:26:51.957Z,5.07
2019-01-04T18:29:20.410Z,4.63
2019-01-04T18:31:48.849Z,4.90
2019-01-04T18:34:17.332Z,5.50
2019-01-04T18:36:45.762Z,4.87
2019-01-04T18:39:14.224Z,5.13
2019-01-04T18:41:42.682Z,5.07
2019-01-04T18:44:11.152Z,4.60
2019-01-04T18:46:39.581Z,5.40
2019-01-04T18:49:08.043Z,4.90
2019-01-04T18:51:36.479Z,5.07
2019-01-04T18:54:04.941Z,4.43
2019-01-04T18:56:33.365Z,4.87
2019-01-04T18:59:01.878Z,5.10
2019-01-04T19:01:30.344Z,5.03
2019-01-04T19:03:58.820Z,5.10
2019-01-04T19:06:31.171Z,4.57
2019-01-04T19:08:57.453Z,5.70
2019-01-04T19:11:25.902Z,4.70
2019-01-04T19:13:54.357Z,4.40
2019-01-04T19:16:22.837Z,4.93
2019-01-04T19:18:51.338Z,5.10
2019-01-04T19:21:19.774Z,4.53
2019-01-04T19:23:48.228Z,5.87
2019-01-04T19:26:16.661Z,4.97
2019-01-04T19:28:45.130Z,6.37
2019-01-04T19:31:13.573Z,5.60
2019-01-04T19:33:42.017Z,4.40
2019-01-04T19:36:10.470Z,4.90
2019-01-04T19:38:38.894Z,5.27
2019-01-04T19:41:07.346Z,5.30
2019-01-04T19:43:35.778Z,5.00
2019-01-04T19:46:04.230Z,4.93
2019-01-04T19:48:32.670Z,5.13
2019-01-04T19:51:01.125Z,4.73
2019-01-04T19:53:29.558Z,4.83
2019-01-04T19:55:58.026Z,5.40
2019-01-04T19:58:26.458Z,5.23
2019-01-04T20:00:54.921Z,6.53
2019-01-04T20:03:23.342Z,5.33
2019-01-04T20:06:08.512Z,5.50
2019-01-04T20:09:02.600Z,5.30
2019-01-04T20:12:02.805Z,6.27
2019-01-04T20:14:41.742Z,5.70
2019-01-04T20:17:14.567Z,5.37
2019-01-04T20:20:02.206Z,5.07
2019-01-04T20:22:41.323Z,5.27
2019-01-04T20:25:14.111Z,5.43
2019-01-04T20:27:46.875Z,5.13
2019-01-04T20:30:22.636Z,5.00
2019-01-04T20:33:08.719Z,4.83
2019-01-04T20:35:41.828Z,5.20
2019-01-04T20:38:14.877Z,5.00
2019-01-04T20:40:45.055Z,4.67
2019-01-04T20:43:15.204Z,4.93
2019-01-04T20:45:51.059Z,5.20
2019-01-04T20:48:23.812Z,5.07
2019-01-04T20:50:53.925Z,5.23
2019-01-04T20:53:24.007Z,4.90
2019-01-04T20:56:09.040Z,4.83
2019-01-04T20:58:45.067Z,5.70
2019-01-04T21:01:15.166Z,4.60
2019-01-04T21:04:01.558Z,5.13
2019-01-04T21:06:47.977Z,5.20
2019-01-04T21:09:24.026Z,5.60
2019-01-04T21:11:54.122Z,5.77
2019-01-04T21:14:36.255Z,6.23
2019-01-04T21:17:06.359Z,6.80
2019-01-04T21:19:39.096Z,5.77
2019-01-04T21:22:26.970Z,6.87
2019-01-04T21:25:12.102Z,7.13
2019-01-04T21:27:44.855Z,7.60
2019-01-04T21:30:14.976Z,7.37
2019-01-04T21:32:54.005Z,7.37
2019-01-04T21:35:40.341Z,8.37
2019-01-04T21:38:26.977Z,9.73
2019-01-04T21:41:09.117Z,8.27
2019-01-04T21:43:39.230Z,8.97
2019-01-04T21:46:18.086Z,9.33
2019-01-04T21:49:04.242Z,8.77
2019-01-04T21:51:50.542Z,10.60
2019-01-04T21:54:32.659Z,9.30
2019-01-04T21:57:08.626Z,9.20
2019-01-04T21:59:41.417Z,10.03
2019-01-04T22:02:23.458Z,8.70
2019-01-04T22:04:56.234Z,9.03
2019-01-04T22:07:42.307Z,9.00
2019-01-04T22:10:12.409Z,8.93
2019-01-04T22:12:42.485Z,10.37
2019-01-04T22:15:18.489Z,9.47
2019-01-04T22:18:04.892Z,9.83
2019-01-04T22:20:49.546Z,11.03
2019-01-04T22:23:22.563Z,10.50
2019-01-04T22:26:08.930Z,10.30
2019-01-04T22:28:44.778Z,9.93
2019-01-04T22:31:30.829Z,9.60
2019-01-04T22:34:19.028Z,9.73
2019-01-04T22:37:05.187Z,10.17
2019-01-04T22:39:35.286Z,9.70
2019-01-04T22:42:21.717Z,9.30
2019-01-04T22:45:08.139Z,9.53
2019-01-04T22:47:44.255Z,10.10
2019-01-04T22:50:32.213Z,9.80
2019-01-04T22:53:14.178Z,9.80
2019-01-04T22:55:52.976Z,8.83
2019-01-04T22:58:31.859Z,8.87
2019-01-04T23:01:13.693Z,9.23
2019-01-04T23:03:55.769Z,10.13
2019-01-04T23:06:25.871Z,9.23
2019-01-04T23:09:04.961Z,9.33
2019-01-04T23:11:40.855Z,9.87
2019-01-04T23:14:13.622Z,8.90
2019-01-04T23:16:52.682Z,9.27
2019-01-04T23:19:22.745Z,8.57
2019-01-04T23:22:11.553Z,8.10
2019-01-04T23:24:50.571Z,7.87
2019-01-04T23:27:35.458Z,8.53
2019-01-04T23:30:12.371Z,8.23
2019-01-04T23:32:42.462Z,8.03
2019-01-04T23:35:30.668Z,7.83
2019-01-04T23:38:00.742Z,7.87
2019-01-04T23:40:36.918Z,7.90
2019-01-04T23:43:09.685Z,7.70
2019-01-04T23:45:48.875Z,7.83
2019-01-04T23:48:24.754Z,7.30
2019-01-04T23:50:57.547Z,7.60
2019-01-04T23:53:36.435Z,7.23
2019-01-04T23:56:22.850Z,7.30
2019-01-04T23:58:58.878Z,7.60
